Portada
METAR-TAF:

METAR-TAF

Aeroports :

Khurramabad, Iran

latitud: 33-26-11N, longitud: 048-17-09E, altitud: 1155 m

Observació

L'informe es va fer fa 28 minuts, a les 13:00 UTC
Vent 4 kt del Est
Temperatura 14°C
Humitat 51%
Pressió 1020 hPa
Visibilitat 10 km o més
Escasses núvols a una alçada de 3500 ft, Cumulonimbus.
Núvols disperses a una alçada de 4000 ft, Cumulus congestus.
Escasses núvols a una alçada de 9000 ft
xàfecs de pluja

METAR: OICK 021300Z 10004KT 9999 -SHRA FEW035CB SCT040TCU FEW090 14/04 Q1020

Hora: 16:58 (13:28 UTC)


TAF: manca

Observacions i pronòstics meteorològics de més de 4000 aeroports (METAR i TAF).

Les estacions disponibles són els punts grocs i vermells al mapa.

Posi el ratolí al punt desitjat per veure el nom de l'estació.

Feu clic per veure les observacions i els pronòstics meteorològics.

Per canviar el mapa: feu clic els botons verds amb una creu de color negre per apropar; al botó verd amb un guió per allunyar la imatge; o en les fletxes verdes per a mapes adjacents.


METAR-TAF: